createdAt,value
2022-12-01T00:00:16.755Z,1.44
2022-12-01T00:00:47.484Z,1.44
2022-12-01T00:01:18.234Z,1.77
2022-12-01T00:01:49.619Z,1.12
2022-12-01T00:02:20.317Z,1.12
2022-12-01T00:02:51.578Z,2.09
2022-12-01T00:03:22.601Z,2.89
2022-12-01T00:03:53.427Z,1.44
2022-12-01T00:04:25.380Z,.32
2022-12-01T00:04:55.350Z,2.09
2022-12-01T00:05:26.492Z,1.44
2022-12-01T00:05:57.368Z,.32
2022-12-01T00:06:28.381Z,1.44
2022-12-01T00:06:59.086Z,3.54
2022-12-01T00:07:30.555Z,1.44
2022-12-01T00:08:01.541Z,3.54
2022-12-01T00:08:32.417Z,1.44
2022-12-01T00:09:03.274Z,2.89
2022-12-01T00:09:35.252Z,3.54
2022-12-01T00:10:05.305Z,4.34
2022-12-01T00:10:36.352Z,4.02
2022-12-01T00:11:07.325Z,1.77
2022-12-01T00:11:38.399Z,1.77
2022-12-01T00:12:09.383Z,2.89
2022-12-01T00:12:40.190Z,2.89
2022-12-01T00:13:11.138Z,1.44
2022-12-01T00:13:42.452Z,4.02
2022-12-01T00:14:13.478Z,2.89
2022-12-01T00:14:45.529Z,1.12
2022-12-01T00:15:15.495Z,.32
2022-12-01T00:15:46.493Z,1.44
2022-12-01T00:16:17.667Z,1.44
2022-12-01T00:16:48.548Z,2.89
2022-12-01T00:17:19.285Z,1.44
2022-12-01T00:17:50.274Z,3.54
2022-12-01T00:18:21.317Z,1.77
2022-12-01T00:18:52.570Z,3.54
2022-12-01T00:19:23.681Z,4.34
2022-12-01T00:19:55.414Z,2.89
2022-12-01T00:20:25.307Z,4.66
2022-12-01T00:20:56.528Z,1.44
2022-12-01T00:21:27.598Z,1.44
2022-12-01T00:21:58.228Z,1.12
2022-12-01T00:22:29.140Z,1.44
2022-12-01T00:23:00.448Z,1.77
2022-12-01T00:23:31.543Z,0
2022-12-01T00:24:02.710Z,1.77
2022-12-01T00:24:33.474Z,2.89
2022-12-01T00:25:05.308Z,2.89
2022-12-01T00:25:35.421Z,4.98
2022-12-01T00:26:06.431Z,1.12
2022-12-01T00:26:37.307Z,2.89
2022-12-01T00:27:08.516Z,3.54
2022-12-01T00:27:39.333Z,2.89
2022-12-01T00:28:10.496Z,2.09
2022-12-01T00:28:41.481Z,2.57
2022-12-01T00:29:12.385Z,6.11
2022-12-01T00:29:43.283Z,3.21
2022-12-01T00:30:15.658Z,2.09
2022-12-01T00:30:45.532Z,2.57
2022-12-01T00:31:16.497Z,2.57
2022-12-01T00:31:47.641Z,2.09
2022-12-01T00:32:18.561Z,3.21
2022-12-01T00:32:49.588Z,1.77
2022-12-01T00:33:20.217Z,1.44
2022-12-01T00:33:51.441Z,1.77
2022-12-01T00:34:22.492Z,1.12
2022-12-01T00:34:53.593Z,0
2022-12-01T00:35:25.475Z,.32
2022-12-01T00:35:55.292Z,1.77
2022-12-01T00:36:26.653Z,0
2022-12-01T00:36:57.415Z,.32
2022-12-01T00:37:28.359Z,1.44
2022-12-01T00:37:59.172Z,2.09
2022-12-01T00:38:30.156Z,1.44
2022-12-01T00:39:01.441Z,.32
2022-12-01T00:39:32.440Z,1.44
2022-12-01T00:40:03.124Z,1.44
2022-12-01T00:40:35.472Z,2.09
2022-12-01T00:41:05.461Z,1.77
2022-12-01T00:41:36.441Z,0
2022-12-01T00:42:11.713Z,1.44
2022-12-01T00:42:38.443Z,2.89
2022-12-01T00:43:09.381Z,1.12
2022-12-01T00:43:40.515Z,1.44
2022-12-01T00:44:11.649Z,1.77
2022-12-01T00:44:42.404Z,3.54
2022-12-01T00:45:13.544Z,1.77
2022-12-01T00:45:45.748Z,3.21
2022-12-01T00:46:15.723Z,.64
2022-12-01T00:46:46.547Z,0
2022-12-01T00:47:17.412Z,2.57
2022-12-01T00:47:48.424Z,1.12
2022-12-01T00:48:19.479Z,0
2022-12-01T00:48:50.427Z,1.12
2022-12-01T00:49:21.237Z,.32
2022-12-01T00:49:52.508Z,.32
2022-12-01T00:50:23.519Z,1.77
2022-12-01T00:50:55.511Z,1.12
2022-12-01T00:51:25.494Z,1.44
2022-12-01T00:51:56.523Z,1.77
2022-12-01T00:52:27.543Z,0
2022-12-01T00:52:58.583Z,3.54
2022-12-01T00:53:29.287Z,1.44
2022-12-01T00:54:00.393Z,1.77
2022-12-01T00:54:31.663Z,.32
2022-12-01T00:55:02.461Z,1.12
2022-12-01T00:55:33.368Z,0
2022-12-01T00:56:05.591Z,0
2022-12-01T00:56:35.625Z,2.09
2022-12-01T00:57:06.578Z,.32
2022-12-01T00:57:37.456Z,2.09
2022-12-01T00:58:08.699Z,2.09
2022-12-01T00:58:39.369Z,2.09
2022-12-01T00:59:10.254Z,.32
2022-12-01T00:59:41.675Z,2.57
2022-12-01T01:00:15.268Z,1.12
2022-12-01T01:00:43.312Z,2.89
2022-12-01T01:01:15.396Z,2.09
2022-12-01T01:01:45.395Z,.64
2022-12-01T01:02:16.744Z,.32
2022-12-01T01:02:47.611Z,1.77
2022-12-01T01:03:18.356Z,.32
2022-12-01T01:03:49.288Z,2.89
2022-12-01T01:04:20.525Z,1.77
2022-12-01T01:04:51.495Z,1.77
2022-12-01T01:05:22.352Z,4.34
2022-12-01T01:05:53.532Z,1.12
2022-12-01T01:06:25.402Z,1.77
2022-12-01T01:06:55.431Z,2.09
2022-12-01T01:07:26.456Z,1.44
2022-12-01T01:07:57.662Z,1.77
2022-12-01T01:08:28.409Z,1.44
2022-12-01T01:08:59.260Z,3.54
2022-12-01T01:09:30.577Z,2.89
2022-12-01T01:10:01.374Z,1.44
2022-12-01T01:10:32.549Z,1.77
2022-12-01T01:11:03.464Z,.64
2022-12-01T01:11:35.612Z,1.12
2022-12-01T01:12:05.554Z,0
2022-12-01T01:12:36.470Z,1.12
2022-12-01T01:13:07.353Z,1.12
2022-12-01T01:13:38.598Z,4.66
2022-12-01T01:14:09.465Z,1.77
2022-12-01T01:14:40.409Z,1.44
2022-12-01T01:15:14.456Z,1.44
2022-12-01T01:15:42.528Z,4.66
2022-12-01T01:16:13.518Z,0
2022-12-01T01:16:45.538Z,0
2022-12-01T01:17:15.448Z,0
2022-12-01T01:17:46.437Z,1.77
2022-12-01T01:18:17.624Z,2.09
2022-12-01T01:18:48.490Z,1.12
2022-12-01T01:19:19.446Z,1.44
2022-12-01T01:19:50.800Z,1.44
2022-12-01T01:20:21.543Z,1.12
2022-12-01T01:20:52.185Z,4.66
2022-12-01T01:21:23.599Z,.32
2022-12-01T01:21:55.458Z,1.77
2022-12-01T01:22:25.477Z,2.57
2022-12-01T01:22:56.624Z,2.89
2022-12-01T01:23:27.588Z,0
2022-12-01T01:23:58.377Z,.32
2022-12-01T01:24:29.337Z,4.02
2022-12-01T01:25:00.441Z,2.89
2022-12-01T01:25:31.220Z,2.09
2022-12-01T01:26:02.603Z,1.77
2022-12-01T01:26:33.533Z,.32
2022-12-01T01:27:05.653Z,2.09
2022-12-01T01:27:35.556Z,2.89
2022-12-01T01:28:06.428Z,1.44
2022-12-01T01:28:37.427Z,2.09
2022-12-01T01:29:08.676Z,.64
2022-12-01T01:29:39.507Z,2.89
2022-12-01T01:30:13.248Z,1.12
2022-12-01T01:30:41.394Z,3.54
2022-12-01T01:31:12.535Z,2.57
2022-12-01T01:31:43.455Z,4.34
2022-12-01T01:32:15.506Z,.32
2022-12-01T01:32:45.334Z,4.02
2022-12-01T01:33:16.188Z,2.09
2022-12-01T01:33:47.259Z,2.09
2022-12-01T01:34:18.413Z,4.66
2022-12-01T01:34:49.273Z,1.44
2022-12-01T01:35:20.300Z,1.44
2022-12-01T01:35:51.228Z,1.12
2022-12-01T01:36:22.602Z,2.89
2022-12-01T01:36:53.372Z,2.09
2022-12-01T01:37:25.328Z,1.44
2022-12-01T01:37:55.556Z,1.44
2022-12-01T01:38:26.551Z,.32
2022-12-01T01:38:57.625Z,2.09
2022-12-01T01:39:28.456Z,2.89
2022-12-01T01:39:59.220Z,2.89
2022-12-01T01:40:31.647Z,1.44
2022-12-01T01:41:08.922Z,1.44
2022-12-01T01:41:33.965Z,2.89
2022-12-01T01:42:04.053Z,1.44
2022-12-01T01:42:35.858Z,.32
2022-12-01T01:43:05.401Z,2.89
2022-12-01T01:43:36.786Z,1.44
2022-12-01T01:44:09.304Z,0
2022-12-01T01:44:39.064Z,.32
2022-12-01T01:45:12.481Z,2.57
2022-12-01T01:45:41.188Z,.64
2022-12-01T01:46:11.663Z,1.12
2022-12-01T01:46:42.813Z,4.02
2022-12-01T01:47:13.588Z,0
2022-12-01T01:47:45.574Z,4.66
2022-12-01T01:48:15.536Z,0
2022-12-01T01:48:46.879Z,1.77
2022-12-01T01:49:59.581Z,2.09
2022-12-01T01:50:20.722Z,2.89
2022-12-01T01:50:55.019Z,3.21
2022-12-01T01:51:22.373Z,2.09
2022-12-01T01:51:52.864Z,.64
2022-12-01T01:52:23.564Z,2.09
2022-12-01T01:52:55.633Z,1.77
2022-12-01T01:53:25.183Z,2.09
2022-12-01T01:53:56.619Z,2.57
2022-12-01T01:54:27.256Z,3.21
2022-12-01T01:54:58.705Z,2.89
2022-12-01T01:55:29.426Z,3.54
2022-12-01T01:56:00.647Z,2.89
2022-12-01T01:56:32.311Z,2.89
2022-12-01T01:57:02.695Z,1.44
2022-12-01T01:57:33.595Z,4.02
2022-12-01T01:58:05.884Z,3.21
2022-12-01T01:58:35.671Z,2.89
2022-12-01T01:59:06.930Z,4.02
2022-12-01T01:59:37.761Z,2.89
2022-12-01T02:00:11.931Z,1.44
2022-12-01T02:00:39.600Z,1.44
2022-12-01T02:01:10.538Z,2.09
2022-12-01T02:01:41.579Z,3.21
2022-12-01T02:02:12.538Z,6.43
2022-12-01T02:02:43.677Z,2.89
2022-12-01T02:03:15.543Z,7.24
2022-12-01T02:03:45.435Z,5.47
2022-12-01T02:04:16.451Z,3.21
2022-12-01T02:04:47.513Z,2.57
2022-12-01T02:05:18.497Z,3.21
2022-12-01T02:05:49.653Z,2.09
2022-12-01T02:06:20.604Z,2.89
2022-12-01T02:06:51.454Z,3.21
2022-12-01T02:07:22.419Z,1.44
2022-12-01T02:07:53.601Z,2.09
2022-12-01T02:08:25.516Z,3.21
2022-12-01T02:08:55.370Z,1.77
2022-12-01T02:09:26.596Z,4.34
2022-12-01T02:09:57.473Z,3.54
2022-12-01T02:10:28.456Z,3.21
2022-12-01T02:10:59.509Z,1.77
2022-12-01T02:11:30.546Z,4.02
2022-12-01T02:12:01.982Z,5.47
2022-12-01T02:12:32.379Z,1.77
2022-12-01T02:13:03.437Z,4.34
2022-12-01T02:13:35.604Z,2.57
2022-12-01T02:14:05.228Z,2.57
2022-12-01T02:14:36.498Z,4.02
2022-12-01T02:15:10.151Z,4.34
2022-12-01T02:15:38.373Z,2.89
2022-12-01T02:16:09.586Z,2.09
2022-12-01T02:16:40.425Z,1.77
2022-12-01T02:17:11.436Z,4.02
2022-12-01T02:17:42.576Z,4.66
2022-12-01T02:18:13.421Z,.32
2022-12-01T02:18:45.468Z,.64
2022-12-01T02:19:15.468Z,1.44
2022-12-01T02:19:47.029Z,.32
2022-12-01T02:20:17.743Z,1.12
2022-12-01T02:20:49.162Z,1.44
2022-12-01T02:21:19.559Z,2.89
2022-12-01T02:21:50.652Z,.64
2022-12-01T02:22:21.526Z,1.77
2022-12-01T02:22:54.107Z,4.66
2022-12-01T02:23:23.542Z,2.09
2022-12-01T02:23:55.363Z,2.09
2022-12-01T02:24:25.451Z,1.44
2022-12-01T02:24:56.583Z,4.02
2022-12-01T02:25:27.514Z,1.77
2022-12-01T02:25:58.511Z,2.09
2022-12-01T02:26:29.610Z,1.44
2022-12-01T02:27:00.485Z,3.54
2022-12-01T02:27:31.515Z,3.21
2022-12-01T02:28:02.704Z,4.34
2022-12-01T02:28:33.579Z,1.44
2022-12-01T02:29:05.701Z,.64
2022-12-01T02:29:35.583Z,0
2022-12-01T02:30:09.430Z,0
2022-12-01T02:30:37.307Z,2.89
2022-12-01T02:31:08.688Z,1.12
2022-12-01T02:31:39.525Z,1.77
2022-12-01T02:32:10.451Z,0
2022-12-01T02:32:41.387Z,1.12
2022-12-01T02:33:12.491Z,.32
2022-12-01T02:33:43.442Z,0
2022-12-01T02:34:15.714Z,.32
2022-12-01T02:34:45.501Z,3.21
2022-12-01T02:35:16.565Z,1.12
2022-12-01T02:35:47.310Z,3.54
2022-12-01T02:36:18.648Z,2.89
2022-12-01T02:36:49.519Z,1.12
2022-12-01T02:37:20.614Z,.32
2022-12-01T02:37:51.542Z,1.44
2022-12-01T02:38:22.370Z,.64
2022-12-01T02:38:53.397Z,2.09
2022-12-01T02:39:25.340Z,1.12
2022-12-01T02:39:55.434Z,4.34
2022-12-01T02:40:26.496Z,.32
2022-12-01T02:40:57.566Z,1.77
2022-12-01T02:41:28.611Z,2.89
2022-12-01T02:41:59.346Z,1.44
2022-12-01T02:42:30.470Z,1.77
2022-12-01T02:43:01.799Z,2.09
2022-12-01T02:43:32.522Z,2.09
2022-12-01T02:44:03.496Z,1.77
2022-12-01T02:44:35.577Z,3.54
2022-12-01T02:45:08.162Z,1.77
2022-12-01T02:45:36.488Z,2.09
2022-12-01T02:46:07.275Z,2.09
2022-12-01T02:46:38.343Z,4.02
2022-12-01T02:47:09.455Z,2.89
2022-12-01T02:47:40.541Z,1.44
2022-12-01T02:48:11.226Z,2.89
2022-12-01T02:48:42.533Z,4.34
2022-12-01T02:49:13.547Z,3.54
2022-12-01T02:49:45.700Z,2.09
2022-12-01T02:50:15.707Z,1.44
2022-12-01T02:50:46.720Z,1.12
2022-12-01T02:51:17.547Z,1.12
2022-12-01T02:51:48.636Z,2.89
2022-12-01T02:52:19.568Z,3.21
2022-12-01T02:52:50.648Z,1.77
2022-12-01T02:53:21.607Z,3.54
2022-12-01T02:53:52.413Z,1.12
2022-12-01T02:54:23.489Z,2.09
2022-12-01T02:54:55.449Z,2.09
2022-12-01T02:55:25.385Z,3.54
2022-12-01T02:55:56.577Z,0
2022-12-01T02:56:27.432Z,2.89
2022-12-01T02:56:58.646Z,2.57
2022-12-01T02:57:29.437Z,2.57
2022-12-01T02:58:00.522Z,2.09
2022-12-01T02:58:31.469Z,1.12
2022-12-01T02:59:02.702Z,0
2022-12-01T02:59:33.605Z,2.09
2022-12-01T03:00:08.186Z,2.89
2022-12-01T03:00:35.404Z,3.21
2022-12-01T03:01:06.587Z,3.54
2022-12-01T03:01:37.434Z,1.77
2022-12-01T03:02:08.484Z,.64
2022-12-01T03:02:39.802Z,0
2022-12-01T03:03:10.393Z,1.12
2022-12-01T03:03:41.574Z,2.57
2022-12-01T03:04:12.484Z,1.12
2022-12-01T03:04:43.527Z,.32
2022-12-01T03:05:15.521Z,.32
2022-12-01T03:05:45.632Z,2.09
2022-12-01T03:06:16.633Z,2.09
2022-12-01T03:06:47.305Z,1.77
2022-12-01T03:07:18.671Z,1.12
2022-12-01T03:07:49.522Z,2.89
2022-12-01T03:08:20.556Z,1.44
2022-12-01T03:08:51.385Z,.32
2022-12-01T03:09:22.452Z,1.12
2022-12-01T03:09:53.390Z,2.89
2022-12-01T03:10:25.466Z,2.09
2022-12-01T03:10:55.433Z,1.12
2022-12-01T03:11:26.336Z,.32
2022-12-01T03:11:57.209Z,.32
2022-12-01T03:12:28.373Z,.32
2022-12-01T03:12:59.524Z,0
2022-12-01T03:13:30.525Z,3.54
2022-12-01T03:14:01.468Z,2.89
2022-12-01T03:14:32.433Z,2.09
2022-12-01T03:15:06.410Z,2.09
2022-12-01T03:15:35.420Z,1.44
2022-12-01T03:16:05.358Z,3.54
2022-12-01T03:16:36.736Z,.32
2022-12-01T03:17:07.380Z,0
2022-12-01T03:17:38.456Z,.32
2022-12-01T03:18:09.649Z,.32
2022-12-01T03:18:40.378Z,.32
2022-12-01T03:19:11.499Z,1.12
2022-12-01T03:19:42.501Z,1.12
2022-12-01T03:20:13.608Z,.32
2022-12-01T03:20:45.625Z,.32
2022-12-01T03:21:15.576Z,0
2022-12-01T03:21:46.721Z,1.44
2022-12-01T03:22:17.699Z,1.44
2022-12-01T03:22:48.777Z,.32
2022-12-01T03:23:19.613Z,.32
2022-12-01T03:23:50.437Z,2.09
2022-12-01T03:24:21.815Z,2.89
2022-12-01T03:24:52.426Z,2.57
2022-12-01T03:25:23.490Z,1.12
2022-12-01T03:25:55.437Z,4.02
2022-12-01T03:26:25.480Z,2.57
2022-12-01T03:26:56.629Z,.32
2022-12-01T03:27:27.565Z,2.57
2022-12-01T03:28:19.752Z,1.44
2022-12-01T03:28:29.442Z,1.77
2022-12-01T03:29:00.408Z,1.44
2022-12-01T03:29:31.485Z,.32
2022-12-01T03:30:05.079Z,0
2022-12-01T03:30:33.697Z,2.89
2022-12-01T03:31:05.543Z,4.66
2022-12-01T03:31:35.706Z,1.44
2022-12-01T03:32:06.517Z,2.57
2022-12-01T03:32:37.424Z,.64
2022-12-01T03:33:08.597Z,.32
2022-12-01T03:33:39.672Z,.32
2022-12-01T03:34:10.488Z,4.66
2022-12-01T03:34:41.569Z,2.89
2022-12-01T03:35:12.368Z,4.02
2022-12-01T03:35:43.611Z,2.89
2022-12-01T03:36:15.693Z,2.89
2022-12-01T03:36:45.505Z,1.44
2022-12-01T03:37:16.463Z,3.54
2022-12-01T03:37:47.494Z,.32
2022-12-01T03:38:18.798Z,2.89
2022-12-01T03:38:49.734Z,5.47
2022-12-01T03:39:20.561Z,6.43
2022-12-01T03:39:54.782Z,3.54
2022-12-01T03:40:22.720Z,2.89
2022-12-01T03:40:53.402Z,6.43
2022-12-01T03:41:25.476Z,4.02
2022-12-01T03:41:55.491Z,2.89
2022-12-01T03:42:26.693Z,6.43
2022-12-01T03:42:57.459Z,3.54
2022-12-01T03:43:28.581Z,2.89
2022-12-01T03:43:59.972Z,1.44
2022-12-01T03:44:30.777Z,3.21
2022-12-01T03:45:04.361Z,.64
2022-12-01T03:45:32.444Z,4.34
2022-12-01T03:46:04.088Z,3.54
2022-12-01T03:46:35.776Z,2.89
2022-12-01T03:47:05.479Z,3.21
2022-12-01T03:47:36.767Z,2.09
2022-12-01T03:48:07.558Z,2.57
2022-12-01T03:48:38.584Z,4.02
2022-12-01T03:49:09.740Z,1.44
2022-12-01T03:49:40.293Z,1.12
2022-12-01T03:50:11.460Z,4.34
2022-12-01T03:50:42.455Z,1.44
2022-12-01T03:51:13.620Z,2.89
2022-12-01T03:51:45.675Z,4.98
2022-12-01T03:52:15.514Z,1.44
2022-12-01T03:52:46.619Z,5.47
2022-12-01T03:53:17.514Z,2.89
2022-12-01T03:53:48.428Z,1.12
2022-12-01T03:54:20.053Z,3.21
2022-12-01T03:54:50.510Z,3.21
2022-12-01T03:55:21.693Z,.64
2022-12-01T03:55:52.674Z,1.77
2022-12-01T03:56:23.478Z,1.12
2022-12-01T03:56:55.488Z,3.21
2022-12-01T03:57:25.567Z,1.44
2022-12-01T03:57:56.684Z,4.34
2022-12-01T03:58:27.365Z,1.44
2022-12-01T03:58:58.403Z,3.54
2022-12-01T03:59:29.587Z,1.12
2022-12-01T04:00:03.418Z,2.89
2022-12-01T04:00:31.594Z,3.54
2022-12-01T04:01:02.447Z,2.09
2022-12-01T04:01:33.514Z,3.21
2022-12-01T04:02:05.725Z,.32
2022-12-01T04:02:35.576Z,1.12
2022-12-01T04:03:06.700Z,4.98
2022-12-01T04:03:37.559Z,2.89
2022-12-01T04:04:08.332Z,2.89
2022-12-01T04:04:39.505Z,6.11
2022-12-01T04:05:10.514Z,4.98
2022-12-01T04:05:41.464Z,4.02
2022-12-01T04:06:12.339Z,1.77
2022-12-01T04:06:43.539Z,1.44
2022-12-01T04:07:15.714Z,3.54
2022-12-01T04:07:45.730Z,1.12
2022-12-01T04:08:16.598Z,1.44
2022-12-01T04:08:47.483Z,1.77
2022-12-01T04:09:18.710Z,2.57
2022-12-01T04:09:50.009Z,1.44
2022-12-01T04:10:20.521Z,3.21
2022-12-01T04:10:51.601Z,3.54
2022-12-01T04:11:22.533Z,.32
2022-12-01T04:14:28.785Z,5.47
2022-12-01T04:14:59.593Z,1.77
2022-12-01T04:15:33.473Z,4.34
2022-12-01T04:16:01.794Z,2.09
2022-12-01T04:16:32.603Z,6.43
2022-12-01T04:17:03.567Z,2.89
2022-12-01T04:17:35.554Z,4.02
2022-12-01T04:18:05.673Z,2.89
2022-12-01T04:18:36.614Z,3.54
2022-12-01T04:19:07.389Z,1.44
2022-12-01T04:19:38.353Z,3.54
2022-12-01T04:20:09.671Z,.64
2022-12-01T04:20:40.663Z,4.02
2022-12-01T04:21:11.632Z,1.77
2022-12-01T04:21:42.404Z,4.34
2022-12-01T04:22:13.643Z,2.89
2022-12-01T04:22:45.734Z,2.89
2022-12-01T04:23:15.731Z,4.02
2022-12-01T04:23:46.593Z,2.57
2022-12-01T04:24:17.565Z,4.34
2022-12-01T04:24:48.837Z,1.12
2022-12-01T04:25:19.888Z,2.09
2022-12-01T04:25:50.528Z,1.44
2022-12-01T04:26:21.495Z,6.43
2022-12-01T04:26:52.448Z,4.34
2022-12-01T04:27:23.355Z,1.12
2022-12-01T04:27:55.491Z,2.09
2022-12-01T04:28:25.526Z,2.89
2022-12-01T04:28:56.626Z,6.43
2022-12-01T04:29:27.556Z,2.09
2022-12-01T04:29:58.610Z,3.54
2022-12-01T04:30:32.459Z,2.09
2022-12-01T04:31:00.770Z,4.66
2022-12-01T04:31:31.639Z,3.54
2022-12-01T04:32:02.675Z,3.54
2022-12-01T04:32:33.473Z,4.66
2022-12-01T04:33:05.556Z,4.66
2022-12-01T04:33:35.757Z,2.09
2022-12-01T04:34:06.632Z,2.09
2022-12-01T04:34:37.531Z,1.12
2022-12-01T04:35:08.458Z,4.02
2022-12-01T04:35:39.651Z,3.54
2022-12-01T04:36:10.510Z,2.89
2022-12-01T04:36:41.573Z,2.89
2022-12-01T04:37:12.445Z,6.11
2022-12-01T04:37:43.584Z,4.34
2022-12-01T04:38:15.563Z,4.02
2022-12-01T04:38:45.817Z,2.89
2022-12-01T04:39:16.575Z,3.21
2022-12-01T04:39:48.192Z,2.09
2022-12-01T04:40:18.553Z,6.11
2022-12-01T04:40:49.671Z,4.66
2022-12-01T04:41:20.762Z,2.89
2022-12-01T04:41:51.611Z,2.57
2022-12-01T04:42:22.505Z,2.89
2022-12-01T04:42:53.438Z,5.47
2022-12-01T04:43:25.535Z,3.54
2022-12-01T04:43:55.460Z,4.02
2022-12-01T04:44:31.454Z,5.47
2022-12-01T04:44:57.633Z,4.34
2022-12-01T04:45:31.384Z,4.34
2022-12-01T04:45:59.595Z,3.54
2022-12-01T04:46:30.591Z,2.57
2022-12-01T04:47:01.668Z,4.98
2022-12-01T04:47:32.778Z,5.47
2022-12-01T04:48:03.758Z,4.02
2022-12-01T04:48:35.823Z,1.44
2022-12-01T04:49:05.766Z,1.77
2022-12-01T04:49:36.637Z,2.89
2022-12-01T04:50:07.569Z,2.57
2022-12-01T04:50:38.470Z,3.21
2022-12-01T04:51:09.659Z,1.44
2022-12-01T04:51:40.512Z,3.54
2022-12-01T04:52:11.659Z,2.89
2022-12-01T04:52:42.615Z,2.09
2022-12-01T04:53:13.556Z,2.89
2022-12-01T04:53:45.679Z,.64
2022-12-01T04:54:15.629Z,1.12
2022-12-01T04:54:46.587Z,1.12
2022-12-01T04:55:17.487Z,1.44
2022-12-01T04:55:48.565Z,3.21
2022-12-01T04:56:19.405Z,3.21
2022-12-01T04:56:50.612Z,6.11
2022-12-01T04:57:21.681Z,3.54
2022-12-01T04:57:52.485Z,6.43
2022-12-01T04:58:23.370Z,5.47
2022-12-01T04:58:55.564Z,1.44
2022-12-01T04:59:25.566Z,1.12
2022-12-01T04:59:56.442Z,.64
2022-12-01T05:00:30.262Z,.32
2022-12-01T05:00:58.683Z,2.09
2022-12-01T05:01:29.584Z,1.12
2022-12-01T05:02:00.695Z,.64
2022-12-01T05:02:31.716Z,8.20
2022-12-01T05:03:02.653Z,7.88
2022-12-01T05:03:33.712Z,9.65
2022-12-01T05:04:05.524Z,8.69
2022-12-01T05:04:35.582Z,9.01
2022-12-01T05:05:06.681Z,8.69
2022-12-01T05:05:37.494Z,7.88
2022-12-01T05:06:08.510Z,6.43
2022-12-01T05:06:39.827Z,10.13
2022-12-01T05:07:10.592Z,7.88
2022-12-01T05:07:41.709Z,4.02
2022-12-01T05:08:12.561Z,8.69
2022-12-01T05:08:43.740Z,4.02
2022-12-01T05:09:17.182Z,9.65
2022-12-01T05:09:45.700Z,11.10
2022-12-01T05:10:16.644Z,4.02
2022-12-01T05:10:47.759Z,6.11
2022-12-01T05:11:18.679Z,12.23
2022-12-01T05:11:49.744Z,11.58
2022-12-01T05:12:20.546Z,4.66
2022-12-01T05:12:51.743Z,9.33
2022-12-01T05:13:22.640Z,4.02
2022-12-01T05:13:53.259Z,3.54
2022-12-01T05:14:25.551Z,6.43
2022-12-01T05:14:55.665Z,7.56
2022-12-01T05:15:29.438Z,8.69
2022-12-01T05:15:57.553Z,11.10
2022-12-01T05:16:28.735Z,5.47
2022-12-01T05:16:59.609Z,4.66
2022-12-01T05:17:35.529Z,13.67
2022-12-01T05:18:01.643Z,6.92
2022-12-01T05:18:32.690Z,6.11
2022-12-01T05:19:03.663Z,3.21
2022-12-01T05:19:35.474Z,3.54
2022-12-01T05:20:05.544Z,9.33
2022-12-01T05:20:36.596Z,6.92
2022-12-01T05:21:07.425Z,13.35
2022-12-01T05:21:38.500Z,10.46
2022-12-01T05:22:09.778Z,13.03
2022-12-01T05:23:04.391Z,14.32
2022-12-01T05:23:42.560Z,10.46
2022-12-01T05:24:13.843Z,10.78
2022-12-01T05:24:45.642Z,10.46
2022-12-01T05:25:15.943Z,13.03
2022-12-01T05:25:46.509Z,4.66
2022-12-01T05:26:17.648Z,11.10
2022-12-01T05:26:48.565Z,9.65
2022-12-01T05:27:19.540Z,13.03
2022-12-01T05:27:50.592Z,12.55
2022-12-01T05:28:21.704Z,12.55
2022-12-01T05:28:52.485Z,10.46
2022-12-01T05:29:23.486Z,11.58
2022-12-01T05:29:55.625Z,5.79
2022-12-01T05:30:28.886Z,8.69
2022-12-01T05:30:56.722Z,13.03
2022-12-01T05:31:27.634Z,12.23
2022-12-01T05:31:58.702Z,12.55
2022-12-01T05:32:29.525Z,10.46
2022-12-01T05:33:00.640Z,14.32
2022-12-01T05:33:31.775Z,10.46
2022-12-01T05:34:02.776Z,9.65
2022-12-01T05:34:33.691Z,6.92
2022-12-01T05:35:05.664Z,12.23
2022-12-01T05:35:35.707Z,11.10
2022-12-01T05:36:06.721Z,9.65
2022-12-01T05:36:37.340Z,4.98
2022-12-01T05:37:08.664Z,10.13
2022-12-01T05:37:39.716Z,11.90
2022-12-01T05:38:10.640Z,15.45
2022-12-01T05:38:41.736Z,6.11
2022-12-01T05:39:12.488Z,12.23
2022-12-01T05:39:43.606Z,9.65
2022-12-01T05:40:15.556Z,4.02
2022-12-01T05:40:45.728Z,4.34
2022-12-01T05:41:16.444Z,6.43
2022-12-01T05:41:47.709Z,8.69
2022-12-01T05:42:18.766Z,4.66
2022-12-01T05:42:49.849Z,6.43
2022-12-01T05:43:24.000Z,4.98
2022-12-01T05:43:51.756Z,6.11
2022-12-01T05:44:22.476Z,11.10
2022-12-01T05:44:53.624Z,8.20
2022-12-01T05:45:28.407Z,6.43
2022-12-01T05:45:55.685Z,13.03
2022-12-01T05:46:26.711Z,12.23
2022-12-01T05:46:57.595Z,6.92
2022-12-01T05:47:28.781Z,7.24
2022-12-01T05:47:59.687Z,7.24
2022-12-01T05:48:30.632Z,5.47
2022-12-01T05:49:01.447Z,6.43
2022-12-01T05:49:32.658Z,4.34
2022-12-01T05:50:05.718Z,4.66
2022-12-01T05:50:35.670Z,5.79
2022-12-01T05:51:05.628Z,5.79
2022-12-01T05:51:36.636Z,9.65
2022-12-01T05:52:07.471Z,9.65
2022-12-01T05:52:38.493Z,9.33
2022-12-01T05:53:09.671Z,4.34
2022-12-01T05:53:40.636Z,9.65
2022-12-01T05:54:11.616Z,8.20
2022-12-01T05:54:42.575Z,6.43
2022-12-01T05:55:13.676Z,3.54
2022-12-01T05:55:45.588Z,4.02
2022-12-01T05:56:15.704Z,7.24
2022-12-01T05:56:46.728Z,8.20
2022-12-01T05:57:17.537Z,8.20
2022-12-01T05:57:48.585Z,3.54
2022-12-01T05:58:19.703Z,7.56
2022-12-01T05:58:50.740Z,5.47
2022-12-01T05:59:21.627Z,4.98
2022-12-01T05:59:52.419Z,4.66
2022-12-01T06:00:26.451Z,4.98
2022-12-01T06:00:55.687Z,2.89
2022-12-01T06:01:25.738Z,6.11
2022-12-01T06:01:56.594Z,3.54
2022-12-01T06:02:27.692Z,4.02
2022-12-01T06:02:58.875Z,3.54
2022-12-01T06:03:29.721Z,2.09
2022-12-01T06:04:00.609Z,5.47
2022-12-01T06:04:31.645Z,7.88
2022-12-01T06:05:02.691Z,7.56
2022-12-01T06:05:33.635Z,8.69
2022-12-01T06:06:05.605Z,5.79
2022-12-01T06:06:35.669Z,3.54
2022-12-01T06:07:06.675Z,5.47
2022-12-01T06:07:37.454Z,2.89
2022-12-01T06:08:08.635Z,2.89
2022-12-01T06:08:39.757Z,5.79
2022-12-01T06:09:10.568Z,3.54
2022-12-01T06:09:41.762Z,4.02
2022-12-01T06:10:12.624Z,4.66
2022-12-01T06:10:43.729Z,5.47
2022-12-01T06:11:15.585Z,4.98
2022-12-01T06:11:48.949Z,2.57
2022-12-01T06:12:16.722Z,4.34
2022-12-01T06:12:47.629Z,4.98
2022-12-01T06:13:18.587Z,4.02
2022-12-01T06:13:49.902Z,3.54
2022-12-01T06:14:20.725Z,4.66
2022-12-01T06:14:51.524Z,2.89
2022-12-01T06:15:25.119Z,1.44
2022-12-01T06:15:53.653Z,4.66
2022-12-01T06:16:25.612Z,4.02
2022-12-01T06:16:55.722Z,3.54
2022-12-01T06:17:26.630Z,2.57
2022-12-01T06:17:57.532Z,2.09
2022-12-01T06:18:28.724Z,2.09
2022-12-01T06:18:59.707Z,4.66
2022-12-01T06:19:30.719Z,1.77
2022-12-01T06:20:01.627Z,4.98
2022-12-01T06:20:32.639Z,2.09
2022-12-01T06:21:03.533Z,2.57
2022-12-01T06:21:35.703Z,4.02
2022-12-01T06:22:05.667Z,7.24
2022-12-01T06:22:36.527Z,6.11
2022-12-01T06:23:07.410Z,3.21
2022-12-01T06:23:38.733Z,4.98
2022-12-01T06:24:09.491Z,4.34
2022-12-01T06:24:40.528Z,4.66
2022-12-01T06:25:11.448Z,5.47
2022-12-01T06:25:42.614Z,4.02
2022-12-01T06:26:13.668Z,8.69
2022-12-01T06:26:45.594Z,5.79
2022-12-01T06:27:15.651Z,7.56
2022-12-01T06:27:46.625Z,4.66
2022-12-01T06:28:17.729Z,4.02
2022-12-01T06:28:48.452Z,2.57
2022-12-01T06:29:19.517Z,9.65
2022-12-01T06:29:50.863Z,7.88
2022-12-01T06:30:24.401Z,7.56
2022-12-01T06:30:54.523Z,6.43
2022-12-01T06:31:23.761Z,7.88
2022-12-01T06:31:55.606Z,7.24
2022-12-01T06:32:25.721Z,10.13
2022-12-01T06:32:56.789Z,11.58
2022-12-01T06:33:27.512Z,6.11
2022-12-01T06:33:58.618Z,6.43
2022-12-01T06:34:29.700Z,6.11
2022-12-01T06:35:00.915Z,5.47
2022-12-01T06:35:31.609Z,4.02
2022-12-01T06:36:02.757Z,11.90
2022-12-01T06:36:33.776Z,14.32
2022-12-01T06:37:05.849Z,13.35
2022-12-01T06:37:35.759Z,4.02
2022-12-01T06:38:06.733Z,7.88
2022-12-01T06:38:37.437Z,12.23
2022-12-01T06:39:08.823Z,11.90
2022-12-01T06:39:39.748Z,7.24
2022-12-01T06:40:10.659Z,4.66
2022-12-01T06:40:41.823Z,11.10
2022-12-01T06:41:12.777Z,11.58
2022-12-01T06:41:43.753Z,13.67
2022-12-01T06:42:15.668Z,13.35
2022-12-01T06:42:45.660Z,9.33
2022-12-01T06:43:16.764Z,12.23
2022-12-01T06:43:47.712Z,11.58
2022-12-01T06:44:18.543Z,5.47
2022-12-01T06:44:49.632Z,11.90
2022-12-01T06:45:23.714Z,8.69
2022-12-01T06:45:54.119Z,6.11
2022-12-01T06:46:22.498Z,8.69
2022-12-01T06:46:53.750Z,7.24
2022-12-01T06:47:25.713Z,11.10
2022-12-01T06:47:55.719Z,11.10
2022-12-01T06:48:26.704Z,5.47
2022-12-01T06:48:57.509Z,4.02
2022-12-01T06:49:28.774Z,9.65
2022-12-01T06:50:01.548Z,9.33
2022-12-01T06:50:30.779Z,13.03
2022-12-01T06:51:01.691Z,11.58
2022-12-01T06:51:32.759Z,9.65
2022-12-01T06:52:03.644Z,6.43
2022-12-01T06:52:35.846Z,7.88
2022-12-01T06:53:05.926Z,5.47
2022-12-01T06:53:36.857Z,9.65
2022-12-01T06:54:07.470Z,10.13
2022-12-01T06:54:38.668Z,4.34
2022-12-01T06:55:09.693Z,9.65
2022-12-01T06:55:40.693Z,4.34
2022-12-01T06:56:11.754Z,5.47
2022-12-01T06:56:42.759Z,7.88
2022-12-01T06:57:13.886Z,4.66
2022-12-01T06:57:45.817Z,6.43